Sand Point, Michigan
Current Conditions -  °F | °C
As of 4:38 PM on Tuesday 21 Oct 2014 (Local Time) from KBAX Reporting Station
Overcast Overcast  
Wind Chill:   Ceiling: 2200
Heat Index:   Visibility: 10mi
Dew Point:   Wind: 15mph
Humidity: 80%   Direction: 10°N
Pressure: 30.13"   Gusts: 24mph
Location:  43.8338°N, 83.2671°W
Report Text: KBAX 212038Z AUTO 01013G21KT 10SM OVC022 06/03 A3013 RMK AO2 T00620029
Loading
Personal Weather Stations






























Interactive Weather Map
Tropical Storm Tracking
New forecast layout! Learn more

10-Day Weather Forecast

Advertisements
Track Severe Weather on mobile